Time;durP1;ratioP1;P1;durP2;ratioP2;P2;SDS_P1;SDS_P2;PMS_P1;PMS_P2;Temp;Humidity;BMP_temperature;BMP_pressure;BME280_temperature;BME280_humidity;BME280_pressure;Samples;Min_cycle;Max_cycle;Signal;HPM_P1;HPM_P2
2022/09/26 00:00:41;;;;;;;13.70;8.48;;;;;;;10.83;81.18;99179.02;1741105;82;21027;-79
2022/09/26 00:03:09;;;;;;;12.85;7.92;;;;;;;10.84;81.01;99178.08;1741422;82;21958;-78
2022/09/26 00:05:36;;;;;;;18.45;7.85;;;;;;;10.86;80.81;99177.55;1715041;82;21067;-79
2022/09/26 00:08:05;;;;;;;12.95;8.60;;;;;;;10.88;80.72;99181.00;1712612;83;21011;-80
2022/09/26 00:10:33;;;;;;;16.37;9.18;;;;;;;10.88;80.69;99174.41;1712756;83;21043;-78
2022/09/26 00:13:02;;;;;;;17.80;10.08;;;;;;;10.88;80.55;99175.27;1712693;83;20957;-80
2022/09/26 00:15:30;;;;;;;16.17;9.30;;;;;;;10.92;80.30;99177.30;1712622;83;21036;-79
2022/09/26 00:17:58;;;;;;;12.73;8.38;;;;;;;10.92;80.35;99179.47;1712667;83;21077;-79
2022/09/26 00:20:24;;;;;;;11.35;8.15;;;;;;;10.94;80.23;99176.77;1712845;83;20981;-80
2022/09/26 00:22:51;;;;;;;14.00;9.43;;;;;;;10.96;80.22;99175.80;1712411;83;21232;-78
2022/09/26 00:25:18;;;;;;;18.95;10.98;;;;;;;10.99;80.26;99177.91;1724610;82;21139;-78
2022/09/26 00:27:44;;;;;;;17.12;10.32;;;;;;;10.99;80.22;99179.22;1712470;83;21068;-79
2022/09/26 00:30:11;;;;;;;11.83;8.33;;;;;;;10.99;80.10;99180.54;1712824;83;21044;-78
2022/09/26 00:32:38;;;;;;;16.80;11.33;;;;;;;10.99;80.10;99180.06;1712454;83;21123;-79
2022/09/26 00:35:06;;;;;;;16.05;10.23;;;;;;;10.98;80.23;99181.01;1713033;83;21110;-77
2022/09/26 00:37:33;;;;;;;12.25;9.23;;;;;;;10.97;80.47;99177.50;1712400;83;21138;-79
2022/09/26 00:40:00;;;;;;;17.85;9.85;;;;;;;10.99;80.82;99172.17;1712842;83;20997;-79
2022/09/26 00:42:26;;;;;;;10.15;9.15;;;;;;;10.99;81.59;99172.17;1712551;83;21083;-79
2022/09/26 00:44:53;;;;;;;11.93;8.25;;;;;;;11.01;82.11;99170.80;1713096;83;21029;-78
2022/09/26 00:47:45;;;;;;;9.28;8.00;;;;;;;11.02;82.44;99173.84;1712608;83;21104;-79
2022/09/26 00:50:20;;;;;;;18.50;10.55;;;;;;;11.02;82.54;99169.88;1712643;83;20984;-79
2022/09/26 00:52:52;;;;;;;22.27;12.98;;;;;;;11.02;82.52;99169.41;1712823;83;21653;-79
2022/09/26 00:55:21;;;;;;;12.78;8.93;;;;;;;10.98;82.09;99174.42;1712443;83;21056;-78
2022/09/26 00:57:53;;;;;;;12.45;8.80;;;;;;;10.93;82.23;99168.03;1712836;83;21554;-78
2022/09/26 01:00:20;;;;;;;10.43;7.70;;;;;;;10.88;82.41;99167.84;1712740;83;21138;-79
2022/09/26 01:02:47;;;;;;;8.68;7.45;;;;;;;10.85;82.61;99169.27;1712553;83;21487;-79
2022/09/26 01:05:15;;;;;;;11.60;7.20;;;;;;;10.86;83.01;99164.39;1735674;81;21559;-79
2022/09/26 01:07:43;;;;;;;14.18;7.33;;;;;;;10.87;83.36;99162.16;1748873;82;21169;-79
2022/09/26 01:10:10;;;;;;;10.60;7.28;;;;;;;10.86;83.66;99160.44;1748899;82;21066;-78
2022/09/26 01:12:37;;;;;;;7.72;6.75;;;;;;;10.87;83.99;99163.01;1749227;82;21192;-79
2022/09/26 01:15:07;;;;;;;9.48;6.87;;;;;;;10.88;84.47;99161.26;1748529;82;21023;-79
2022/09/26 01:17:39;;;;;;;10.60;7.25;;;;;;;10.90;84.99;99166.84;1748925;82;21035;-78
2022/09/26 01:20:29;;;;;;;9.73;7.72;;;;;;;10.91;85.38;99164.61;1748849;82;21102;-80
2022/09/26 01:23:41;;;;;;;12.55;7.85;;;;;;;10.89;85.69;99157.25;1749092;82;21055;-79
2022/09/26 01:27:06;;;;;;;9.73;6.95;;;;;;;10.88;85.78;99162.58;1748805;82;21312;-79
2022/09/26 01:30:06;;;;;;;11.40;7.85;;;;;;;10.85;86.11;99156.12;1749260;82;21028;-80
2022/09/26 01:33:20;;;;;;;12.80;8.78;;;;;;;10.84;86.30;99161.81;1736910;82;21058;-80
2022/09/26 01:36:04;;;;;;;11.00;8.13;;;;;;;10.80;86.18;99162.03;1738287;81;21089;-80
2022/09/26 01:39:07;;;;;;;11.15;8.35;;;;;;;10.73;86.24;99170.63;1747597;81;21440;-79
2022/09/26 01:42:01;;;;;;;9.63;8.63;;;;;;;10.69;86.52;99173.86;1748394;82;21563;-79
2022/09/26 01:44:36;;;;;;;12.03;8.95;;;;;;;10.66;87.01;99167.83;1748673;82;21046;-80
2022/09/26 01:47:28;;;;;;;14.53;9.70;;;;;;;10.62;87.12;99163.16;1742862;81;21019;-80
2022/09/26 01:50:06;;;;;;;16.73;9.80;;;;;;;10.62;87.34;99164.94;1748810;82;21106;-79
2022/09/26 01:52:45;;;;;;;16.82;10.03;;;;;;;10.60;87.22;99163.69;1748776;82;21010;-79
2022/09/26 01:55:16;;;;;;;12.90;8.58;;;;;;;10.59;87.23;99155.38;1748808;82;21966;-79
2022/09/26 01:57:47;;;;;;;14.20;10.20;;;;;;;10.57;87.09;99150.65;1748912;82;21090;-80
2022/09/26 02:00:14;;;;;;;23.85;13.58;;;;;;;10.58;86.92;99148.43;1747338;81;21642;-79
2022/09/26 02:02:48;;;;;;;14.23;8.95;;;;;;;10.60;87.02;99161.91;1727932;82;22293;-79
2022/09/26 02:05:37;;;;;;;25.57;8.70;;;;;;;10.60;87.02;99158.42;1748763;82;21593;-78
2022/09/26 02:08:15;;;;;;;11.10;7.87;;;;;;;10.56;87.14;99151.12;1749080;82;21147;-79
2022/09/26 02:10:48;;;;;;;10.25;7.72;;;;;;;10.52;87.30;99149.98;1749018;82;21062;-80
2022/09/26 02:13:22;;;;;;;9.68;7.78;;;;;;;10.50;87.29;99147.87;1748920;82;21008;-80
2022/09/26 02:15:53;;;;;;;9.03;7.83;;;;;;;10.49;87.42;99150.10;1749102;82;21051;-79
2022/09/26 02:18:25;;;;;;;14.35;7.28;;;;;;;10.50;87.51;99150.51;1749360;82;21031;-79
2022/09/26 02:20:57;;;;;;;10.72;8.00;;;;;;;10.49;87.60;99151.41;1748890;81;21137;-81
2022/09/26 02:23:24;;;;;;;11.93;8.13;;;;;;;10.47;87.82;99148.84;1749281;81;21075;-80
2022/09/26 02:25:52;;;;;;;10.60;7.87;;;;;;;10.44;87.97;99150.75;1748772;81;21011;-79
2022/09/26 02:28:21;;;;;;;12.70;8.23;;;;;;;10.43;88.13;99147.73;1748717;82;21174;-80
2022/09/26 02:30:48;;;;;;;11.03;8.23;;;;;;;10.45;88.29;99155.10;1748758;81;21008;-79
2022/09/26 02:33:14;;;;;;;12.68;8.88;;;;;;;10.43;88.40;99151.68;1748817;82;21260;-79
2022/09/26 02:35:54;;;;;;;8.83;7.67;;;;;;;10.38;88.54;99151.39;1748750;82;21054;-80
2022/09/26 02:38:23;;;;;;;12.70;8.10;;;;;;;10.33;88.70;99144.14;1748944;81;21660;-80
2022/09/26 02:41:04;;;;;;;12.40;8.18;;;;;;;10.33;88.77;99135.41;1749049;81;21028;-81
2022/09/26 02:43:50;;;;;;;8.80;7.37;;;;;;;10.35;88.81;99134.88;1748452;81;21106;-79
2022/09/26 02:46:57;;;;;;;8.70;7.85;;;;;;;10.36;88.83;99135.29;1728693;82;21246;-80
2022/09/26 02:49:53;;;;;;;11.38;7.42;;;;;;;10.36;88.92;99136.60;1748558;82;21007;-81
2022/09/26 02:52:52;;;;;;;13.28;7.45;;;;;;;10.34;89.09;99136.66;1751186;81;20971;-81
2022/09/26 02:55:41;;;;;;;11.43;8.05;;;;;;;10.36;89.32;99130.88;1748471;81;21118;-80
2022/09/26 02:58:35;;;;;;;10.68;7.75;;;;;;;10.36;89.27;99129.56;1749010;81;20999;-79
2022/09/26 03:01:31;;;;;;;11.03;7.22;;;;;;;10.35;89.39;99134.41;1748781;81;21821;-80
2022/09/26 03:04:23;;;;;;;14.23;8.70;;;;;;;10.35;89.49;99122.58;1746567;81;21169;-81
2022/09/26 03:06:52;;;;;;;25.62;12.68;;;;;;;10.36;89.57;99115.09;1743699;82;21062;-80
2022/09/26 03:09:19;;;;;;;30.68;17.48;;;;;;;10.37;89.48;99114.19;1743779;82;21142;-80
2022/09/26 03:11:45;;;;;;;38.75;20.52;;;;;;;10.39;89.52;99108.87;1707455;83;21004;-80
2022/09/26 03:14:12;;;;;;;55.00;27.50;;;;;;;10.41;89.32;99101.77;1707672;83;21096;-78
2022/09/26 03:16:42;;;;;;;38.17;21.80;;;;;;;10.45;89.28;99098.08;1743713;82;21122;-80
2022/09/26 03:19:13;;;;;;;32.98;18.02;;;;;;;10.47;89.44;99094.92;1743912;82;21000;-79
2022/09/26 03:21:40;;;;;;;31.10;15.80;;;;;;;10.50;89.62;99095.27;1743851;82;21628;-80
2022/09/26 03:24:07;;;;;;;24.45;15.55;;;;;;;10.52;89.88;99100.00;1743913;82;21502;-80
2022/09/26 03:26:33;;;;;;;24.40;14.23;;;;;;;10.52;90.08;99096.06;1743407;82;21976;-80
2022/09/26 03:29:02;;;;;;;23.02;13.40;;;;;;;10.52;90.30;99089.05;1743752;82;21028;-80
2022/09/26 03:31:30;;;;;;;18.48;11.83;;;;;;;10.52;90.50;99089.48;1697495;84;21500;-80
2022/09/26 03:34:00;;;;;;;16.87;10.43;;;;;;;10.54;90.43;99100.79;1707234;83;21075;-80
2022/09/26 03:36:27;;;;;;;52.13;30.60;;;;;;;10.51;90.45;99095.21;1707743;83;21056;-80
2022/09/26 03:38:54;;;;;;;30.32;19.00;;;;;;;10.51;90.38;99106.20;1744089;81;21063;-81
2022/09/26 03:41:41;;;;;;;15.28;11.50;;;;;;;10.47;90.40;99108.55;1707841;83;21036;-79
2022/09/26 03:44:07;;;;;;;21.37;9.80;;;;;;;10.38;90.52;99123.77;1707702;84;21079;-79
2022/09/26 03:46:51;;;;;;;9.45;7.97;;;;;;;10.29;90.61;99122.81;1742124;82;21021;-80
2022/09/26 03:49:17;;;;;;;10.05;7.30;;;;;;;10.20;90.79;99113.95;1706888;84;21055;-80
2022/09/26 03:51:44;;;;;;;9.85;7.70;;;;;;;10.16;90.85;99116.33;1707657;83;21170;-82
2022/09/26 03:54:12;;;;;;;10.32;6.85;;;;;;;10.13;91.04;99113.81;1707092;84;21036;-79
2022/09/26 03:56:40;;;;;;;12.33;7.12;;;;;;;10.11;91.06;99111.70;1706903;84;21079;-78
2022/09/26 03:59:07;;;;;;;11.28;7.25;;;;;;;10.09;91.18;99114.86;1708036;83;21048;-80
2022/09/26 04:01:34;;;;;;;9.15;7.03;;;;;;;10.09;91.25;99112.23;1706793;84;20997;-79
2022/09/26 04:04:01;;;;;;;11.35;7.55;;;;;;;10.07;91.36;99116.67;1703134;84;21083;-80
2022/09/26 04:06:27;;;;;;;10.82;7.17;;;;;;;10.05;91.54;99108.84;1711714;83;20999;-79
2022/09/26 04:08:55;;;;;;;9.15;6.67;;;;;;;10.06;91.62;99105.77;1722969;82;21064;-79
2022/09/26 04:11:23;;;;;;;9.50;6.78;;;;;;;10.11;91.64;99107.30;1646811;85;22314;-80
2022/09/26 04:13:50;;;;;;;10.15;6.92;;;;;;;10.16;91.58;99111.91;1667409;86;21084;-81
2022/09/26 04:16:18;;;;;;;11.30;7.33;;;;;;;10.22;91.74;99108.17;1668048;86;21230;-80
2022/09/26 04:18:47;;;;;;;18.92;11.75;;;;;;;10.27;91.82;99110.19;1683091;84;21444;-80
2022/09/26 04:21:13;;;;;;;22.77;12.00;;;;;;;10.31;91.77;99107.82;1683888;84;21098;-79
2022/09/26 04:23:42;;;;;;;17.12;10.55;;;;;;;10.35;91.68;99102.86;1683827;85;22025;-81
2022/09/26 04:26:15;;;;;;;13.43;8.80;;;;;;;10.38;91.52;99097.48;1684818;85;21028;-79
2022/09/26 04:28:41;;;;;;;12.37;7.80;;;;;;;10.41;91.26;99099.98;1683654;85;21775;-80
2022/09/26 04:31:13;;;;;;;11.22;7.95;;;;;;;10.41;91.00;99097.36;1683348;85;21091;-79
2022/09/26 04:33:39;;;;;;;14.93;9.13;;;;;;;10.41;90.64;99102.62;1683337;85;21182;-81
2022/09/26 04:36:10;;;;;;;9.38;7.72;;;;;;;10.43;90.51;99097.77;1683731;85;21008;-80
2022/09/26 04:38:38;;;;;;;11.65;7.90;;;;;;;10.43;90.35;99095.98;1683543;85;21186;-80
2022/09/26 04:41:08;;;;;;;8.70;7.00;;;;;;;10.44;90.25;99096.83;1683774;85;21523;-80
2022/09/26 04:43:35;;;;;;;15.03;8.10;;;;;;;10.46;90.17;99095.02;1682874;85;21087;-81
2022/09/26 04:46:07;;;;;;;10.50;7.37;;;;;;;10.49;90.04;99096.18;1684852;85;21586;-79
2022/09/26 04:48:35;;;;;;;6.75;5.85;;;;;;;10.51;89.93;99088.64;1685156;85;21151;-80
2022/09/26 04:51:11;;;;;;;8.53;6.00;;;;;;;10.54;89.78;99088.52;1683408;85;21055;-81
2022/09/26 04:53:38;;;;;;;6.47;5.47;;;;;;;10.57;89.67;99087.52;1683791;85;21124;-81
2022/09/26 04:56:16;;;;;;;6.17;5.58;;;;;;;10.58;89.59;99083.98;1666438;85;21118;-81
2022/09/26 04:58:43;;;;;;;8.88;5.60;;;;;;;10.62;89.59;99089.49;1683885;85;21608;-80
2022/09/26 05:01:16;;;;;;;7.42;6.25;;;;;;;10.64;89.57;99087.68;1683627;85;21147;-80
2022/09/26 05:03:57;;;;;;;7.10;6.22;;;;;;;10.63;89.58;99087.27;1648138;85;21514;-81
2022/09/26 05:06:25;;;;;;;6.72;6.03;;;;;;;10.64;89.57;99092.94;1701796;83;21245;-80
2022/09/26 05:08:53;;;;;;;8.50;5.80;;;;;;;10.65;89.55;99088.53;1712345;83;21039;-78
2022/09/26 05:11:23;;;;;;;7.90;6.10;;;;;;;10.64;89.59;99092.06;1712966;83;20987;-80
2022/09/26 05:13:50;;;;;;;8.68;6.30;;;;;;;10.66;89.84;99104.25;1714697;83;21116;-81
2022/09/26 05:16:18;;;;;;;8.85;6.60;;;;;;;10.64;89.92;99111.36;1715128;83;21073;-79
2022/09/26 05:18:50;;;;;;;15.15;9.45;;;;;;;10.64;90.02;99108.73;1707984;84;21054;-80
2022/09/26 05:21:18;;;;;;;13.60;8.18;;;;;;;10.62;90.30;99105.75;1714412;83;21144;-81
2022/09/26 05:26:43;;;;;;;17.25;9.73;;;;;;;10.62;90.48;99088.17;1712978;83;21120;-81
2022/09/26 05:29:10;;;;;;;15.50;7.92;;;;;;;10.64;90.68;99091.63;1748806;81;21161;-81
2022/09/26 05:31:48;;;;;;;10.43;6.37;;;;;;;10.67;90.77;99086.20;1714671;83;21549;-80
2022/09/26 05:34:16;;;;;;;8.15;6.20;;;;;;;10.69;90.88;99087.03;1747796;82;20987;-79
2022/09/26 05:36:43;;;;;;;6.58;5.97;;;;;;;10.69;90.82;99080.45;1714996;83;21061;-80
2022/09/26 05:41:57;;;;;;;7.08;5.95;;;;;;;10.70;90.48;99071.61;1715235;83;21089;-80
2022/09/26 05:44:26;;;;;;;8.40;6.53;;;;;;;10.72;90.53;99081.61;1748150;82;21707;-80
2022/09/26 05:46:52;;;;;;;9.08;6.10;;;;;;;10.74;90.39;99075.84;1748747;82;21040;-80
2022/09/26 05:49:21;;;;;;;6.90;6.20;;;;;;;10.74;90.31;99073.22;1714574;83;21512;-80
2022/09/26 05:51:47;;;;;;;7.40;5.83;;;;;;;10.76;90.24;99070.05;1748280;82;22245;-79
2022/09/26 05:54:15;;;;;;;7.75;5.22;;;;;;;10.78;90.14;99066.88;1748929;82;21063;-79
2022/09/26 05:56:42;;;;;;;6.12;5.53;;;;;;;10.83;89.94;99062.75;1715286;83;21219;-80
2022/09/26 05:59:11;;;;;;;6.83;6.12;;;;;;;10.89;90.25;99065.56;1748410;81;20996;-80
2022/09/26 06:01:58;;;;;;;6.20;5.45;;;;;;;10.91;90.51;99074.24;1682719;83;21685;-81
2022/09/26 06:04:28;;;;;;;7.58;5.70;;;;;;;10.92;90.57;99068.92;1689487;84;21096;-79
2022/09/26 06:06:59;;;;;;;7.12;6.12;;;;;;;10.95;90.49;99070.58;1696842;83;21038;-80
2022/09/26 06:09:26;;;;;;;8.58;6.03;;;;;;;10.97;90.50;99074.84;1714908;83;21251;-79
2022/09/26 06:12:05;;;;;;;9.95;6.30;;;;;;;10.97;90.63;99076.15;1695657;81;22383;-80
2022/09/26 06:14:32;;;;;;;12.82;7.78;;;;;;;10.96;90.13;99077.53;1748648;82;20954;-79
2022/09/26 06:16:58;;;;;;;13.13;8.55;;;;;;;10.91;89.63;99077.75;1749008;82;20987;-79
2022/09/26 06:19:24;;;;;;;10.50;8.23;;;;;;;10.88;89.90;99080.98;1714656;83;21006;-80
2022/09/26 06:21:52;;;;;;;11.43;8.25;;;;;;;10.87;89.74;99077.94;1747925;82;21280;-79
2022/09/26 06:24:19;;;;;;;11.43;7.53;;;;;;;10.87;89.77;99080.58;1715338;83;21101;-81
2022/09/26 06:26:47;;;;;;;9.15;6.42;;;;;;;10.88;89.88;99082.30;1748444;82;21102;-79
2022/09/26 06:29:15;;;;;;;7.90;6.47;;;;;;;10.90;90.20;99087.03;1715231;83;21009;-79
2022/09/26 06:31:42;;;;;;;8.10;7.03;;;;;;;10.94;90.23;99088.59;1748236;82;21664;-79
2022/09/26 06:34:08;;;;;;;8.43;7.42;;;;;;;10.98;90.39;99098.09;1748563;82;21124;-79
2022/09/26 06:36:37;;;;;;;10.05;8.05;;;;;;;10.98;90.62;99090.19;1715458;83;21062;-78
2022/09/26 06:39:04;;;;;;;10.48;8.13;;;;;;;11.01;90.63;99085.23;1707716;84;21055;-79
2022/09/26 06:41:34;;;;;;;12.90;8.68;;;;;;;11.01;90.40;99091.81;1748117;82;21672;-79
2022/09/26 06:44:02;;;;;;;10.20;8.10;;;;;;;11.03;90.45;99088.66;1715399;83;21041;-80
2022/09/26 06:46:31;;;;;;;10.45;7.12;;;;;;;11.02;90.38;99079.91;1746853;82;21513;-80
2022/09/26 06:48:59;;;;;;;6.55;5.70;;;;;;;11.03;90.25;99078.13;1714387;83;21465;-80
2022/09/26 06:51:47;;;;;;;8.43;6.87;;;;;;;11.03;89.98;99076.37;1748442;82;23361;-81
2022/09/26 06:54:16;;;;;;;7.45;6.62;;;;;;;11.07;89.82;99083.66;1714646;83;21041;-79
2022/09/26 06:56:42;;;;;;;11.28;7.65;;;;;;;11.10;89.55;99090.12;1748391;81;21082;-81
2022/09/26 06:59:10;;;;;;;11.15;7.53;;;;;;;11.09;89.26;99093.19;1714809;83;21453;-79
2022/09/26 07:01:40;;;;;;;9.50;7.33;;;;;;;11.09;88.74;99105.04;1747559;82;20983;-80
2022/09/26 07:04:12;;;;;;;11.25;7.40;;;;;;;11.07;88.30;99104.73;1706629;83;21048;-79
2022/09/26 07:06:46;;;;;;;10.45;7.08;;;;;;;11.06;87.82;99103.00;1749362;81;21063;-80
2022/09/26 07:09:13;;;;;;;6.83;6.12;;;;;;;11.03;87.83;99104.01;1717331;83;21067;-78
2022/09/26 07:11:45;;;;;;;7.72;6.47;;;;;;;10.96;87.82;99101.22;1718206;82;21834;-78
2022/09/26 07:14:17;;;;;;;6.03;5.42;;;;;;;10.91;88.05;99104.52;1717668;82;21601;-81
2022/09/26 07:16:43;;;;;;;8.48;6.00;;;;;;;10.91;88.04;99100.56;1717145;82;20960;-79
2022/09/26 07:19:15;;;;;;;11.12;7.17;;;;;;;10.95;88.08;99097.74;1713298;82;20967;-81
2022/09/26 07:22:03;;;;;;;8.60;6.25;;;;;;;10.99;88.13;99089.72;1717421;82;21091;-81
2022/09/26 07:24:33;;;;;;;8.10;5.90;;;;;;;11.01;87.74;99091.38;1717555;82;21150;-80
2022/09/26 07:27:01;;;;;;;6.97;5.55;;;;;;;11.02;87.48;99082.54;1717431;82;21007;-79
2022/09/26 07:29:28;;;;;;;6.87;5.78;;;;;;;11.05;87.33;99083.73;1717340;83;21019;-80
2022/09/26 07:31:54;;;;;;;7.60;6.08;;;;;;;11.10;87.24;99074.33;1733220;82;21013;-79
2022/09/26 07:34:35;;;;;;;11.53;6.83;;;;;;;11.14;87.05;99079.83;1717471;82;21005;-79
2022/09/26 07:37:04;;;;;;;9.58;7.25;;;;;;;11.17;86.82;99082.80;1717360;82;21549;-79
2022/09/26 07:39:31;;;;;;;14.75;8.10;;;;;;;11.20;86.54;99082.67;1717282;83;21143;-79
2022/09/26 07:42:00;;;;;;;11.20;7.67;;;;;;;11.24;86.46;99075.87;1717289;83;21071;-79
2022/09/26 07:44:27;;;;;;;10.60;7.28;;;;;;;11.31;86.53;99075.13;1717525;83;21068;-80
2022/09/26 07:52:28;;;;;;;13.98;7.85;;;;;;;11.49;86.28;99061.13;1718282;82;21111;-81
2022/09/26 07:54:56;;;;;;;9.40;7.55;;;;;;;11.57;86.10;99062.58;1719669;82;21561;-79
2022/09/26 07:57:31;;;;;;;11.05;7.95;;;;;;;11.64;86.02;99064.00;1687825;83;21633;-81
2022/09/26 08:00:11;;;;;;;12.98;8.68;;;;;;;11.64;85.40;99062.69;1715995;82;21070;-80
2022/09/26 08:02:45;;;;;;;13.45;8.40;;;;;;;11.66;84.99;99059.51;1717164;82;21135;-80
2022/09/26 08:05:18;;;;;;;9.70;7.30;;;;;;;11.70;84.96;99054.47;1717436;83;21040;-79
2022/09/26 08:07:46;;;;;;;9.45;6.80;;;;;;;11.75;84.77;99055.14;1693943;83;22225;-79
2022/09/26 08:10:26;;;;;;;10.55;7.03;;;;;;;11.78;84.48;99056.29;1706992;82;21539;-79
2022/09/26 08:13:04;;;;;;;8.30;6.60;;;;;;;11.81;84.15;99056.15;1712080;82;21008;-79
2022/09/26 08:15:36;;;;;;;7.97;6.90;;;;;;;11.83;83.54;99058.24;1718055;82;21298;-79
2022/09/26 08:18:05;;;;;;;10.35;6.87;;;;;;;11.85;83.77;99061.69;1717036;83;21076;-79
2022/09/26 08:20:32;;;;;;;7.95;5.95;;;;;;;11.87;84.26;99058.51;1717187;83;20992;-79
2022/09/26 08:22:59;;;;;;;13.58;6.30;;;;;;;11.84;83.75;99053.38;1717348;83;21079;-79
2022/09/26 08:25:26;;;;;;;6.75;5.37;;;;;;;11.83;83.44;99051.66;1717343;83;21570;-80
2022/09/26 08:27:58;;;;;;;10.30;5.72;;;;;;;11.83;83.00;99056.08;1717007;82;21192;-79
2022/09/26 08:30:24;;;;;;;10.55;6.47;;;;;;;11.84;82.87;99052.05;1717349;82;21621;-79
2022/09/26 08:32:52;;;;;;;8.68;5.75;;;;;;;11.87;83.24;99050.59;1716966;83;21023;-79
2022/09/26 08:35:19;;;;;;;9.53;5.85;;;;;;;11.92;83.56;99046.91;1717522;83;21102;-79
2022/09/26 08:38:05;;;;;;;10.43;6.47;;;;;;;11.97;83.18;99044.91;1717373;83;21044;-79
2022/09/26 08:41:00;;;;;;;8.25;6.28;;;;;;;12.03;82.99;99044.62;1717414;83;22249;-78
2022/09/26 08:43:47;;;;;;;;;;;;;;;12.09;82.78;99041.70;1721556;82;21053;-79
2022/09/26 08:49:43;;;;;;;6.85;6.15;;;;;;;12.13;82.49;99053.80;1717404;83;21086;-79
2022/09/26 08:52:30;;;;;;;9.15;6.40;;;;;;;12.15;82.18;99054.56;1716765;82;21495;-78
2022/09/26 08:55:01;;;;;;;7.70;5.70;;;;;;;12.16;82.42;99056.28;1709839;82;23078;-79
2022/09/26 08:57:48;;;;;;;6.80;5.58;;;;;;;12.19;83.25;99050.87;1717286;83;21530;-80
2022/09/26 09:00:19;;;;;;;7.05;5.53;;;;;;;12.25;82.79;99045.30;1717309;83;21107;-79
2022/09/26 09:03:14;;;;;;;8.63;5.72;;;;;;;12.32;82.74;99048.94;1717699;82;21075;-79
2022/09/26 09:05:54;;;;;;;8.90;5.53;;;;;;;12.33;82.92;99044.91;1716971;82;21573;-79
2022/09/26 09:08:24;;;;;;;9.30;5.97;;;;;;;12.40;82.80;99036.22;1731953;82;21259;-79
2022/09/26 09:11:20;;;;;;;9.55;5.95;;;;;;;12.47;82.88;99038.94;1717459;82;21067;-79
2022/09/26 09:13:58;;;;;;;6.97;5.45;;;;;;;12.52;81.87;99044.84;1717362;83;21133;-79
2022/09/26 09:17:18;;;;;;;8.18;5.92;;;;;;;12.60;82.33;99041.83;1716235;83;21035;-79
2022/09/26 09:20:19;;;;;;;9.48;5.92;;;;;;;12.66;81.94;99038.02;1708736;82;20993;-79
2022/09/26 09:23:26;;;;;;;8.28;6.65;;;;;;;12.76;81.43;99041.89;1717176;82;21146;-79
2022/09/26 09:26:22;;;;;;;11.40;6.37;;;;;;;12.83;80.98;99038.86;1717037;82;21040;-79
2022/09/26 09:29:15;;;;;;;10.55;7.00;;;;;;;12.93;81.53;99043.69;1717100;82;21071;-79
2022/09/26 09:31:43;;;;;;;8.30;6.92;;;;;;;12.98;80.06;99042.50;1714124;83;21123;-79
2022/09/26 09:34:31;;;;;;;8.35;6.80;;;;;;;13.03;79.95;99042.71;1718424;82;20989;-79
2022/09/26 09:37:06;;;;;;;10.98;7.20;;;;;;;13.11;79.39;99045.81;1716775;82;21169;-79
2022/09/26 09:39:45;;;;;;;8.45;6.80;;;;;;;13.22;78.67;99047.42;1709610;82;21542;-79
2022/09/26 09:42:24;;;;;;;12.25;6.97;;;;;;;13.34;78.56;99051.23;1717618;82;21458;-80
2022/09/26 09:45:20;;;;;;;8.00;6.67;;;;;;;13.44;77.35;99050.28;1717138;83;21115;-79
2022/09/26 09:47:47;;;;;;;8.13;5.70;;;;;;;13.56;76.37;99048.28;1717452;83;20988;-79
2022/09/26 09:50:43;;;;;;;8.00;6.05;;;;;;;13.66;74.48;99045.52;1717548;83;21069;-80
2022/09/26 09:53:42;;;;;;;10.40;6.30;;;;;;;13.74;74.31;99048.59;1717387;83;21086;-80
2022/09/26 09:56:39;;;;;;;11.57;5.97;;;;;;;13.91;73.69;99040.20;1717078;83;20984;-79
2022/09/26 09:59:23;;;;;;;6.42;5.67;;;;;;;14.08;72.92;99038.77;1717095;82;20996;-79
2022/09/26 10:01:57;;;;;;;9.38;5.87;;;;;;;14.24;71.73;99032.16;1715684;82;21543;-80
2022/09/26 10:04:35;;;;;;;6.58;5.97;;;;;;;14.35;72.00;99028.03;1716959;82;21946;-78
2022/09/26 10:07:04;;;;;;;11.35;6.70;;;;;;;14.47;71.19;99022.89;1732846;82;21035;-78
2022/09/26 10:09:41;;;;;;;6.50;5.40;;;;;;;14.65;71.48;99012.17;1712648;83;21019;-80
2022/09/26 10:12:28;;;;;;;9.18;5.78;;;;;;;14.82;70.93;99004.06;1712883;83;21096;-80
2022/09/26 10:15:18;;;;;;;9.83;5.60;;;;;;;15.05;70.26;99007.12;1676787;83;21075;-80
2022/09/26 10:18:05;;;;;;;7.20;5.80;;;;;;;15.20;69.92;99000.88;1709269;83;21137;-78
2022/09/26 10:20:56;;;;;;;7.87;6.03;;;;;;;15.42;69.93;98994.23;1712700;83;21074;-80
2022/09/26 10:23:28;;;;;;;7.83;5.53;;;;;;;15.64;70.27;98998.19;1713222;83;21656;-80
2022/09/26 10:26:02;;;;;;;7.80;5.35;;;;;;;15.88;69.49;98991.31;1712659;83;21071;-79
2022/09/26 10:28:37;;;;;;;8.25;5.97;;;;;;;16.10;69.59;98983.28;1712689;83;21016;-80
2022/09/26 10:31:07;;;;;;;6.65;5.33;;;;;;;16.31;68.46;98969.91;1708490;83;21893;-79
2022/09/26 10:33:38;;;;;;;8.90;5.53;;;;;;;16.49;68.00;98961.65;1712872;83;21047;-79
2022/09/26 10:36:22;;;;;;;8.75;5.20;;;;;;;16.67;66.64;98964.37;1691961;83;21514;-79
2022/09/26 10:41:45;;;;;;;6.60;5.40;;;;;;;17.13;67.27;98956.39;1712802;83;21052;-80
2022/09/26 10:44:24;;;;;;;5.78;5.17;;;;;;;17.45;66.80;98954.09;1712665;83;21217;-78
2022/09/26 10:46:57;;;;;;;6.12;5.10;;;;;;;17.73;65.83;98952.06;1682038;83;21035;-79
2022/09/26 10:49:50;;;;;;;6.40;4.70;;;;;;;18.05;64.99;98950.69;1712074;83;21039;-78
2022/09/26 10:52:39;;;;;;;5.35;4.78;;;;;;;18.32;63.26;98951.75;1712615;83;21122;-79
2022/09/26 10:55:14;;;;;;;4.42;4.08;;;;;;;18.55;62.29;98937.53;1712497;83;20982;-78
2022/09/26 10:57:47;;;;;;;7.47;4.47;;;;;;;18.73;60.36;98935.77;1713317;83;21115;-79
2022/09/26 11:00:35;;;;;;;5.00;3.77;;;;;;;18.80;58.28;98940.97;1712962;83;21087;-78
2022/09/26 11:03:12;;;;;;;5.62;3.80;;;;;;;18.82;56.51;98936.36;1712663;83;21525;-80
2022/09/26 11:05:59;;;;;;;4.70;3.62;;;;;;;18.85;57.00;98932.16;1713085;83;21021;-79
2022/09/26 11:08:34;;;;;;;12.40;4.05;;;;;;;18.91;56.00;98934.36;1712979;83;21542;-77
2022/09/26 11:11:11;;;;;;;5.40;3.60;;;;;;;19.03;54.99;98921.00;1691162;83;21613;-80
2022/09/26 11:14:02;;;;;;;4.67;3.60;;;;;;;19.07;56.18;98924.65;1712634;83;21078;-79
2022/09/26 11:16:27;;;;;;;3.87;2.98;;;;;;;19.11;53.43;98922.58;1688647;83;21070;-78
2022/09/26 11:19:34;;;;;;;7.45;2.87;;;;;;;19.04;53.86;98918.72;1711951;83;21118;-80
2022/09/26 11:22:25;;;;;;;4.15;3.35;;;;;;;19.05;54.79;98916.42;1712625;83;21451;-79
2022/09/26 11:25:12;;;;;;;3.75;3.22;;;;;;;19.18;54.04;98908.27;1685045;85;21154;-78
2022/09/26 11:28:01;;;;;;;2.80;2.58;;;;;;;19.36;54.41;98897.46;1717325;83;21733;-78
2022/09/26 11:30:30;;;;;;;3.10;2.25;;;;;;;19.55;53.58;98904.84;1715660;83;21027;-78
2022/09/26 11:33:07;;;;;;;2.20;2.00;;;;;;;19.71;53.70;98904.41;1693821;83;21101;-78
2022/09/26 11:36:09;;;;;;;2.95;2.08;;;;;;;19.81;52.76;98904.04;1646757;85;21067;-78
2022/09/26 11:38:56;;;;;;;3.37;2.70;;;;;;;19.85;52.96;98909.97;1678572;85;21171;-80
2022/09/26 11:41:40;;;;;;;2.92;2.60;;;;;;;19.84;52.10;98916.30;1726607;81;21066;-79
2022/09/26 11:44:40;;;;;;;5.53;2.55;;;;;;;19.76;50.43;98916.09;1756456;81;21647;-79
2022/09/26 11:47:53;;;;;;;3.08;2.50;;;;;;;19.57;49.98;98914.02;1756496;81;21038;-79
2022/09/26 11:50:49;;;;;;;3.62;2.70;;;;;;;19.25;51.80;98919.67;1755649;81;21081;-78
2022/09/26 11:53:59;;;;;;;6.53;2.30;;;;;;;19.12;51.95;98919.80;1712538;83;21138;-79
2022/09/26 11:57:24;;;;;;;3.45;2.75;;;;;;;19.09;52.27;98917.86;1712403;83;21066;-80
2022/09/26 12:00:05;;;;;;;3.37;2.50;;;;;;;19.06;52.39;98918.10;1712801;83;21052;-78
2022/09/26 12:03:15;;;;;;;3.05;2.72;;;;;;;19.03;52.73;98920.55;1711842;83;21063;-78
2022/09/26 12:06:18;;;;;;;3.30;3.00;;;;;;;19.00;52.83;98917.28;1712427;83;21063;-80
2022/09/26 12:09:11;;;;;;;2.90;2.62;;;;;;;18.92;51.64;98922.70;1712576;83;21254;-78
2022/09/26 12:11:51;;;;;;;6.33;2.98;;;;;;;18.74;52.24;98922.78;1712751;83;21090;-79
2022/09/26 12:14:42;;;;;;;3.95;3.02;;;;;;;18.62;52.68;98921.08;1712625;83;21640;-80
2022/09/26 12:17:18;;;;;;;2.65;2.45;;;;;;;18.55;52.31;98919.37;1681838;83;21526;-79
2022/09/26 12:20:19;;;;;;;9.68;3.15;;;;;;;18.49;53.39;98916.71;1712600;83;21064;-79
2022/09/26 12:23:03;;;;;;;2.90;2.70;;;;;;;18.49;54.13;98914.51;1713238;83;21090;-79
2022/09/26 12:25:46;;;;;;;3.83;2.90;;;;;;;18.41;53.50;98909.79;1712294;83;21546;-79
2022/09/26 12:28:45;;;;;;;3.47;2.25;;;;;;;18.38;53.85;98911.35;1712191;83;21087;-79